createdAt,value
2023-05-07T00:01:20.107Z,53.68
2023-05-07T00:03:46.965Z,53.60
2023-05-07T00:06:13.949Z,53.62
2023-05-07T00:08:40.382Z,53.84
2023-05-07T00:11:07.009Z,53.60
2023-05-07T00:13:36.262Z,53.61
2023-05-07T00:16:04.174Z,53.49
2023-05-07T00:18:30.780Z,53.60
2023-05-07T00:20:57.357Z,53.86
2023-05-07T00:23:24.236Z,53.75
2023-05-07T00:25:50.655Z,53.82
2023-05-07T00:28:17.079Z,53.90
2023-05-07T00:30:43.602Z,53.72
2023-05-07T00:33:10.145Z,53.71
2023-05-07T00:35:36.610Z,53.97
2023-05-07T00:38:03.115Z,54.44
2023-05-07T00:40:29.567Z,54.24
2023-05-07T00:42:59.124Z,54.32
2023-05-07T00:45:29.856Z,54.17
2023-05-07T00:47:59.265Z,54.16
2023-05-07T00:50:27.593Z,54.17
2023-05-07T00:52:54.545Z,54.37
2023-05-07T00:55:21.264Z,54.30
2023-05-07T00:57:47.812Z,54.35
2023-05-07T01:00:14.819Z,54.33
2023-05-07T01:02:42.029Z,54.42
2023-05-07T01:05:12.451Z,54.62
2023-05-07T01:07:41.625Z,54.29
2023-05-07T01:10:09.988Z,54.93
2023-05-07T01:12:38.571Z,55.04
2023-05-07T01:15:06.564Z,55.21
2023-05-07T01:17:37.527Z,54.94
2023-05-07T01:20:05.994Z,55.10
2023-05-07T01:22:34.609Z,55.35
2023-05-07T01:25:02.570Z,55.24
2023-05-07T01:27:29.192Z,55.30
2023-05-07T01:29:56.569Z,55.39
2023-05-07T01:32:30.109Z,54.80
2023-05-07T01:34:58.479Z,55.23
2023-05-07T01:37:26.519Z,55.22
2023-05-07T01:39:54.139Z,55.51
2023-05-07T01:42:20.815Z,55.49
2023-05-07T01:44:47.425Z,55.72
2023-05-07T01:47:15.113Z,55.31
2023-05-07T01:49:43.060Z,55.44
2023-05-07T01:52:11.655Z,55.26
2023-05-07T01:54:38.391Z,55.33
2023-05-07T01:57:04.766Z,55.61
2023-05-07T01:59:31.201Z,55.63
2023-05-07T02:01:57.604Z,55.71
2023-05-07T02:04:24.246Z,55.79
2023-05-07T02:06:50.878Z,55.53
2023-05-07T02:09:18.716Z,55.93
2023-05-07T02:11:45.369Z,55.95
2023-05-07T02:14:12.026Z,55.93
2023-05-07T02:16:38.476Z,55.82
2023-05-07T02:19:04.872Z,56.01
2023-05-07T02:21:31.381Z,55.77
2023-05-07T02:23:57.859Z,55.74
2023-05-07T02:26:24.206Z,56.19
2023-05-07T02:28:50.734Z,56.18
2023-05-07T02:31:17.139Z,56.27
2023-05-07T02:33:43.609Z,56.19
2023-05-07T02:36:10.963Z,56.48
2023-05-07T02:38:37.722Z,56.43
2023-05-07T02:41:04.245Z,56.44
2023-05-07T02:43:30.668Z,56.34
2023-05-07T02:46:03.928Z,56.37
2023-05-07T02:48:30.513Z,56.53
2023-05-07T02:50:56.929Z,56.51
2023-05-07T02:53:23.460Z,56.58
2023-05-07T02:55:49.990Z,56.94
2023-05-07T02:58:16.428Z,56.81
2023-05-07T03:00:42.894Z,56.63
2023-05-07T03:03:09.442Z,56.66
2023-05-07T03:05:36.033Z,56.68
2023-05-07T03:08:02.497Z,56.95
2023-05-07T03:10:28.935Z,56.93
2023-05-07T03:12:55.368Z,56.88
2023-05-07T03:15:22.636Z,57.05
2023-05-07T03:17:49.580Z,57.22
2023-05-07T03:20:16.370Z,57.18
2023-05-07T03:22:43.140Z,57.13
2023-05-07T03:25:10.317Z,57.11
2023-05-07T03:27:36.819Z,57.10
2023-05-07T03:30:03.871Z,57.33
2023-05-07T03:32:30.252Z,57.12
2023-05-07T03:34:56.810Z,57.27
2023-05-07T03:37:23.275Z,57.45
2023-05-07T03:39:49.632Z,57.37
2023-05-07T03:42:16.128Z,57.45
2023-05-07T03:44:42.558Z,57.24
2023-05-07T03:47:09.008Z,57.65
2023-05-07T03:49:35.781Z,57.86
2023-05-07T03:52:02.284Z,57.82
2023-05-07T03:54:28.732Z,57.81
2023-05-07T03:56:55.245Z,57.93
2023-05-07T03:59:21.689Z,57.91
2023-05-07T04:01:48.159Z,57.89
2023-05-07T04:04:15.123Z,58.13
2023-05-07T04:06:42.150Z,58.23
2023-05-07T04:09:08.728Z,58.30
2023-05-07T04:11:36.957Z,58.12
2023-05-07T04:14:03.360Z,58.18
2023-05-07T04:16:29.810Z,58.23
2023-05-07T04:18:56.255Z,58.19
2023-05-07T04:21:22.666Z,58.08
2023-05-07T04:23:49.515Z,58.13
2023-05-07T04:26:16.928Z,58.13
2023-05-07T04:28:43.425Z,58.21
2023-05-07T04:31:09.948Z,58.22
2023-05-07T04:33:36.351Z,58.14
2023-05-07T04:36:04.882Z,57.60
2023-05-07T04:38:32.429Z,57.99
2023-05-07T04:41:03.799Z,57.89
2023-05-07T04:43:30.554Z,58.01
2023-05-07T04:45:56.957Z,57.89
2023-05-07T04:48:23.373Z,57.91
2023-05-07T04:50:50.833Z,58.12
2023-05-07T04:53:18.600Z,57.70
2023-05-07T04:55:46.166Z,58.28
2023-05-07T04:58:13.218Z,58.22
2023-05-07T05:00:40.271Z,58.19
2023-05-07T05:03:09.770Z,58.14
2023-05-07T05:05:36.313Z,58.05
2023-05-07T05:08:02.756Z,58.16
2023-05-07T05:10:29.191Z,58.11
2023-05-07T05:12:55.860Z,58.19
2023-05-07T05:15:22.566Z,58.16
2023-05-07T05:17:49.066Z,57.92
2023-05-07T05:20:15.843Z,57.81
2023-05-07T05:22:43.307Z,57.74
2023-05-07T05:25:10.045Z,57.44
2023-05-07T05:27:36.799Z,57.61
2023-05-07T05:30:04.252Z,57.45
2023-05-07T05:32:30.624Z,57.18
2023-05-07T05:34:57.026Z,57.25
2023-05-07T05:37:23.727Z,57.18
2023-05-07T05:39:50.260Z,57.47
2023-05-07T05:42:16.729Z,57.07
2023-05-07T05:44:43.074Z,56.90
2023-05-07T05:47:09.476Z,57.08
2023-05-07T05:49:36.126Z,56.87
2023-05-07T05:52:02.746Z,56.87
2023-05-07T05:54:29.210Z,56.99
2023-05-07T05:56:55.760Z,56.92
2023-05-07T05:59:22.298Z,56.88
2023-05-07T06:01:48.830Z,57.12
2023-05-07T06:04:15.183Z,57.12
2023-05-07T06:06:41.704Z,57.23
2023-05-07T06:09:08.097Z,56.82
2023-05-07T06:11:34.473Z,56.68
2023-05-07T06:14:01.193Z,56.59
2023-05-07T06:16:27.574Z,56.83
2023-05-07T06:18:54.033Z,56.49
2023-05-07T06:21:20.458Z,56.30
2023-05-07T06:23:46.796Z,55.96
2023-05-07T06:26:13.283Z,55.97
2023-05-07T06:28:39.651Z,56.08
2023-05-07T06:31:17.160Z,55.45
2023-05-07T06:33:45.268Z,55.59
2023-05-07T06:36:11.682Z,55.49
2023-05-07T06:38:38.072Z,55.44
2023-05-07T06:41:04.472Z,55.26
2023-05-07T06:43:30.812Z,55.33
2023-05-07T06:45:57.297Z,55.47
2023-05-07T06:48:23.849Z,55.64
2023-05-07T06:50:50.379Z,55.31
2023-05-07T06:53:16.811Z,55.35
2023-05-07T06:55:43.191Z,55.29
2023-05-07T06:58:09.608Z,55.08
2023-05-07T07:00:36.143Z,55.02
2023-05-07T07:03:02.579Z,54.94
2023-05-07T07:05:29.188Z,54.62
2023-05-07T07:07:55.731Z,54.35
2023-05-07T07:10:22.899Z,54.53
2023-05-07T07:12:50.375Z,53.90
2023-05-07T07:15:17.516Z,54.05
2023-05-07T07:17:44.005Z,54.11
2023-05-07T07:20:12.265Z,53.55
2023-05-07T07:22:38.810Z,53.65
2023-05-07T07:25:05.609Z,53.40
2023-05-07T07:27:32.020Z,52.66
2023-05-07T07:29:58.365Z,53.25
2023-05-07T07:32:24.926Z,52.94
2023-05-07T07:34:51.333Z,52.36
2023-05-07T07:37:17.846Z,52.14
2023-05-07T07:39:44.397Z,51.59
2023-05-07T07:42:10.791Z,51.68
2023-05-07T07:44:37.249Z,51.47
2023-05-07T07:47:03.813Z,51.41
2023-05-07T07:49:30.256Z,51.19
2023-05-07T07:51:59.567Z,50.90
2023-05-07T07:54:26.697Z,51.10
2023-05-07T07:56:53.277Z,50.79
2023-05-07T07:59:20.035Z,50.94
2023-05-07T08:01:46.535Z,50.84
2023-05-07T08:04:13.080Z,50.39
2023-05-07T08:06:39.696Z,50.87
2023-05-07T08:09:06.108Z,50.76
2023-05-07T08:11:32.510Z,50.76
2023-05-07T08:13:59.116Z,50.56
2023-05-07T08:16:26.047Z,50.31
2023-05-07T08:18:52.435Z,50.37
2023-05-07T08:21:18.852Z,50.08
2023-05-07T08:23:45.733Z,49.71
2023-05-07T08:26:12.271Z,49.67
2023-05-07T08:28:38.730Z,49.69
2023-05-07T08:31:05.270Z,49.24
2023-05-07T08:33:32.107Z,48.92
2023-05-07T08:35:58.532Z,48.76
2023-05-07T08:38:25.006Z,48.90
2023-05-07T08:40:51.418Z,48.92
2023-05-07T08:43:19.274Z,48.97
2023-05-07T08:45:46.854Z,48.68
2023-05-07T08:48:18.139Z,48.87
2023-05-07T08:50:44.608Z,48.67
2023-05-07T08:53:11.032Z,48.69
2023-05-07T08:55:37.474Z,48.51
2023-05-07T08:58:04.927Z,48.08
2023-05-07T09:00:31.398Z,48.04
2023-05-07T09:02:57.867Z,47.63
2023-05-07T09:05:24.373Z,47.87
2023-05-07T09:07:53.971Z,47.57
2023-05-07T09:10:22.022Z,47.64
2023-05-07T09:12:48.936Z,47.55
2023-05-07T09:15:15.594Z,47.29
2023-05-07T09:17:43.335Z,47.35
2023-05-07T09:20:11.061Z,47.06
2023-05-07T09:22:38.403Z,46.67
2023-05-07T09:25:06.986Z,46.79
2023-05-07T09:27:33.426Z,46.36
2023-05-07T09:29:59.843Z,46.42
2023-05-07T09:32:28.191Z,46.32
2023-05-07T09:34:55.184Z,45.85
2023-05-07T09:37:21.623Z,45.80
2023-05-07T09:39:50.102Z,45.91
2023-05-07T09:42:16.531Z,45.59
2023-05-07T09:44:48.333Z,45.57
2023-05-07T09:47:20.498Z,45.10
2023-05-07T09:49:49.014Z,45.61
2023-05-07T09:52:15.997Z,45.59
2023-05-07T09:54:46.135Z,45.60
2023-05-07T09:57:17.397Z,45.26
2023-05-07T09:59:44.908Z,45.13
2023-05-07T10:02:14.019Z,45.05
2023-05-07T10:04:41.419Z,45.14
2023-05-07T10:07:08.736Z,44.70
2023-05-07T10:09:39.361Z,44.82
2023-05-07T10:12:07.113Z,44.41
2023-05-07T10:14:34.596Z,44.45
2023-05-07T10:17:02.530Z,44.20
2023-05-07T10:19:30.404Z,43.77
2023-05-07T10:22:04.342Z,43.74
2023-05-07T10:24:34.997Z,43.64
2023-05-07T10:27:03.784Z,43.56
2023-05-07T10:30:04.063Z,44.01
2023-05-07T10:32:39.894Z,43.59
2023-05-07T10:35:12.498Z,43.39
2023-05-07T10:37:39.959Z,43.41
2023-05-07T10:40:08.322Z,42.91
2023-05-07T10:42:35.314Z,43.05
2023-05-07T10:45:17.941Z,43.04
2023-05-07T10:48:27.986Z,43.03
2023-05-07T10:51:20.789Z,43.18
2023-05-07T10:53:47.721Z,42.37
2023-05-07T10:56:21.487Z,42.10
2023-05-07T10:58:48.303Z,42.13
2023-05-07T11:01:15.992Z,42.51
2023-05-07T11:04:27.169Z,43.43
2023-05-07T11:07:12.237Z,43.39
2023-05-07T11:09:53.606Z,43.36
2023-05-07T11:12:38.576Z,43.08
2023-05-07T11:15:09.928Z,43.62
2023-05-07T11:17:54.215Z,43.68
2023-05-07T11:20:21.433Z,42.75
2023-05-07T11:22:48.703Z,43.03
2023-05-07T11:25:20.171Z,43.14
2023-05-07T11:27:46.901Z,42.95
2023-05-07T11:30:22.851Z,43.66
2023-05-07T11:32:49.594Z,43.88
2023-05-07T11:35:16.703Z,43.02
2023-05-07T11:37:45.840Z,42.93
2023-05-07T11:40:14.732Z,43.01
2023-05-07T11:42:45.101Z,43.11
2023-05-07T11:45:11.967Z,43.00
2023-05-07T11:47:38.747Z,42.99
2023-05-07T11:50:08.302Z,42.81
2023-05-07T11:52:35.815Z,42.94
2023-05-07T11:55:04.505Z,42.99
2023-05-07T11:57:31.143Z,42.42
2023-05-07T11:59:59.302Z,42.35
2023-05-07T12:02:26.802Z,41.60
2023-05-07T12:04:54.113Z,41.81
2023-05-07T12:07:20.855Z,41.19
2023-05-07T12:09:48.326Z,40.96
2023-05-07T12:12:27.409Z,41.25
2023-05-07T12:14:53.769Z,40.88
2023-05-07T12:17:21.155Z,41.08
2023-05-07T12:19:57.335Z,41.21
2023-05-07T12:22:23.769Z,41.16
2023-05-07T12:24:57.612Z,41.13
2023-05-07T12:27:24.274Z,41.06
2023-05-07T12:29:51.829Z,41.17
2023-05-07T12:32:21.959Z,41.39
2023-05-07T12:34:51.970Z,41.56
2023-05-07T12:37:27.544Z,41.50
2023-05-07T12:40:08.580Z,41.11
2023-05-07T12:42:39.516Z,41.08
2023-05-07T12:45:14.301Z,41.18
2023-05-07T12:47:48.501Z,40.80
2023-05-07T12:50:16.517Z,40.88
2023-05-07T12:52:45.803Z,40.95
2023-05-07T12:55:15.412Z,40.22
2023-05-07T12:57:49.520Z,40.83
2023-05-07T13:00:16.273Z,40.96
2023-05-07T13:02:47.609Z,40.86
2023-05-07T13:05:14.454Z,41.35
2023-05-07T13:07:41.754Z,41.37
2023-05-07T13:10:08.938Z,41.58
2023-05-07T13:12:35.975Z,41.05
2023-05-07T13:15:02.404Z,41.18
2023-05-07T13:17:28.851Z,40.73
2023-05-07T13:19:55.299Z,40.90
2023-05-07T13:22:21.638Z,40.82
2023-05-07T13:24:48.097Z,40.27
2023-05-07T13:27:14.495Z,40.33
2023-05-07T13:29:40.906Z,40.64
2023-05-07T13:32:07.373Z,40.32
2023-05-07T13:34:34.248Z,40.36
2023-05-07T13:37:00.614Z,40.19
2023-05-07T13:39:27.118Z,39.74
2023-05-07T13:41:53.615Z,39.94
2023-05-07T13:44:19.949Z,39.78
2023-05-07T13:46:46.514Z,39.65
2023-05-07T13:49:13.865Z,39.85
2023-05-07T13:51:40.348Z,39.57
2023-05-07T13:54:06.814Z,40.05
2023-05-07T13:56:33.519Z,39.43
2023-05-07T13:59:00.998Z,39.08
2023-05-07T14:01:28.449Z,38.81
2023-05-07T14:03:55.141Z,39.30
2023-05-07T14:06:21.549Z,39.31
2023-05-07T14:08:47.997Z,39.34
2023-05-07T14:11:14.397Z,39.58
2023-05-07T14:13:41.053Z,39.87
2023-05-07T14:16:07.493Z,40.00
2023-05-07T14:18:35.428Z,40.02
2023-05-07T14:21:01.887Z,40.11
2023-05-07T14:23:28.702Z,40.07
2023-05-07T14:25:58.130Z,39.17
2023-05-07T14:28:24.927Z,39.49
2023-05-07T14:30:51.310Z,39.50
2023-05-07T14:33:18.119Z,39.72
2023-05-07T14:35:48.944Z,39.46
2023-05-07T14:38:16.553Z,39.56
2023-05-07T14:40:43.208Z,39.71
2023-05-07T14:43:09.594Z,39.65
2023-05-07T14:45:36.010Z,40.25
2023-05-07T14:48:02.932Z,40.22
2023-05-07T14:50:29.318Z,39.45
2023-05-07T14:52:55.864Z,39.81
2023-05-07T14:55:22.422Z,40.20
2023-05-07T14:57:48.847Z,40.33
2023-05-07T15:00:15.294Z,40.25
2023-05-07T15:02:41.749Z,40.40
2023-05-07T15:05:08.415Z,40.45
2023-05-07T15:07:35.310Z,40.72
2023-05-07T15:10:01.921Z,40.41
2023-05-07T15:12:28.365Z,40.31
2023-05-07T15:14:54.833Z,40.16
2023-05-07T15:17:21.254Z,40.31
2023-05-07T15:19:47.666Z,40.29
2023-05-07T15:22:14.091Z,40.10
2023-05-07T15:24:41.886Z,40.35
2023-05-07T15:27:08.238Z,40.15
2023-05-07T15:29:34.638Z,40.24
2023-05-07T15:32:01.109Z,40.55
2023-05-07T15:34:28.309Z,40.43
2023-05-07T15:36:57.682Z,40.17
2023-05-07T15:39:25.097Z,40.42
2023-05-07T15:41:51.685Z,40.13
2023-05-07T15:44:18.107Z,40.32
2023-05-07T15:46:44.492Z,40.45
2023-05-07T15:49:11.493Z,40.36
2023-05-07T15:51:37.936Z,39.82
2023-05-07T15:54:04.488Z,40.16
2023-05-07T15:56:33.886Z,39.99
2023-05-07T15:59:00.749Z,40.07
2023-05-07T16:01:27.181Z,39.93
2023-05-07T16:03:53.668Z,40.18
2023-05-07T16:06:20.166Z,39.76
2023-05-07T16:08:46.514Z,39.85
2023-05-07T16:11:12.896Z,40.09
2023-05-07T16:13:39.269Z,39.61
2023-05-07T16:16:06.397Z,39.79
2023-05-07T16:18:33.600Z,39.91
2023-05-07T16:21:00.964Z,39.85
2023-05-07T16:23:27.550Z,40.01
2023-05-07T16:25:53.955Z,39.80
2023-05-07T16:28:20.593Z,40.16
2023-05-07T16:30:47.085Z,39.77
2023-05-07T16:33:13.490Z,39.97
2023-05-07T16:35:40.042Z,40.54
2023-05-07T16:38:10.290Z,40.47
2023-05-07T16:40:40.287Z,40.19
2023-05-07T16:43:06.658Z,40.24
2023-05-07T16:45:33.046Z,40.49
2023-05-07T16:47:59.609Z,40.31
2023-05-07T16:50:26.083Z,39.88
2023-05-07T16:52:52.452Z,40.06
2023-05-07T16:55:18.858Z,40.76
2023-05-07T16:57:45.365Z,40.96
2023-05-07T17:00:12.350Z,41.21
2023-05-07T17:02:38.878Z,41.18
2023-05-07T17:05:08.479Z,41.58
2023-05-07T17:07:35.304Z,41.77
2023-05-07T17:10:02.729Z,41.67
2023-05-07T17:12:47.764Z,42.31
2023-05-07T17:15:14.396Z,42.41
2023-05-07T17:17:41.867Z,42.61
2023-05-07T17:20:08.885Z,42.51
2023-05-07T17:22:35.368Z,42.42
2023-05-07T17:25:04.118Z,42.56
2023-05-07T17:27:40.072Z,42.48
2023-05-07T17:30:06.755Z,42.46
2023-05-07T17:32:35.037Z,42.55
2023-05-07T17:35:01.820Z,42.47
2023-05-07T17:37:28.243Z,42.74
2023-05-07T17:39:54.778Z,42.89
2023-05-07T17:42:21.280Z,42.86
2023-05-07T17:44:47.679Z,43.00
2023-05-07T17:47:14.431Z,42.73
2023-05-07T17:49:41.876Z,42.88
2023-05-07T17:52:08.853Z,43.27
2023-05-07T17:54:35.243Z,43.38
2023-05-07T17:57:01.670Z,43.01
2023-05-07T17:59:28.773Z,43.49
2023-05-07T18:01:55.342Z,43.03
2023-05-07T18:04:21.888Z,43.25
2023-05-07T18:06:48.591Z,43.46
2023-05-07T18:09:15.203Z,43.32
2023-05-07T18:11:41.636Z,43.39
2023-05-07T18:14:08.116Z,43.94
2023-05-07T18:16:34.702Z,44.06
2023-05-07T18:19:02.239Z,43.90
2023-05-07T18:21:28.705Z,44.21
2023-05-07T18:23:55.058Z,44.20
2023-05-07T18:26:21.572Z,44.68
2023-05-07T18:28:47.968Z,44.59
2023-05-07T18:31:14.484Z,44.73
2023-05-07T18:33:40.887Z,44.84
2023-05-07T18:36:07.299Z,44.97
2023-05-07T18:38:34.007Z,45.08
2023-05-07T18:41:02.809Z,45.23
2023-05-07T18:43:29.241Z,45.32
2023-05-07T18:45:55.683Z,45.41
2023-05-07T18:48:22.172Z,45.43
2023-05-07T18:50:49.261Z,45.64
2023-05-07T18:53:15.733Z,45.47
2023-05-07T18:55:42.172Z,45.61
2023-05-07T18:58:08.617Z,45.66
2023-05-07T19:00:35.084Z,45.47
2023-05-07T19:03:01.618Z,46.05
2023-05-07T19:05:28.111Z,45.87
2023-05-07T19:07:54.526Z,46.24
2023-05-07T19:10:21.259Z,46.12
2023-05-07T19:12:47.810Z,46.11
2023-05-07T19:15:14.368Z,46.61
2023-05-07T19:17:40.755Z,46.44
2023-05-07T19:22:39.327Z,46.65
2023-05-07T19:25:06.367Z,46.85
2023-05-07T19:27:32.712Z,46.87
2023-05-07T19:29:59.238Z,46.91
2023-05-07T19:32:26.198Z,47.15
2023-05-07T19:34:52.854Z,47.44
2023-05-07T19:37:22.838Z,47.40
2023-05-07T19:39:49.363Z,47.03
2023-05-07T19:42:15.918Z,47.67
2023-05-07T19:44:42.406Z,47.59
2023-05-07T19:47:09.385Z,47.86
2023-05-07T19:49:36.013Z,48.29
2023-05-07T19:52:02.657Z,47.85
2023-05-07T19:54:29.273Z,48.15
2023-05-07T19:56:56.841Z,48.17
2023-05-07T19:59:24.056Z,48.35
2023-05-07T20:01:50.587Z,48.38
2023-05-07T20:04:17.058Z,48.58
2023-05-07T20:06:43.501Z,48.78
2023-05-07T20:09:12.634Z,48.89
2023-05-07T20:11:39.795Z,49.07
2023-05-07T20:14:06.199Z,49.06
2023-05-07T20:16:33.630Z,49.13
2023-05-07T20:19:00.403Z,49.23
2023-05-07T20:21:26.858Z,49.33
2023-05-07T20:23:54.238Z,49.20
2023-05-07T20:26:21.262Z,49.30
2023-05-07T20:28:47.709Z,49.51
2023-05-07T20:31:14.263Z,49.39
2023-05-07T20:33:41.000Z,49.36
2023-05-07T20:36:08.213Z,49.70
2023-05-07T20:38:34.529Z,49.67
2023-05-07T20:41:12.609Z,49.27
2023-05-07T20:43:39.018Z,49.53
2023-05-07T20:46:07.553Z,49.57
2023-05-07T20:48:34.292Z,49.50
2023-05-07T20:51:01.843Z,49.46
2023-05-07T20:53:29.839Z,49.61
2023-05-07T20:55:56.887Z,49.58
2023-05-07T20:58:26.531Z,49.70
2023-05-07T21:00:53.752Z,49.93
2023-05-07T21:03:20.670Z,49.70
2023-05-07T21:05:54.154Z,49.54
2023-05-07T21:08:21.028Z,49.67
2023-05-07T21:10:47.866Z,49.84
2023-05-07T21:13:14.965Z,49.70
2023-05-07T21:15:42.914Z,49.82
2023-05-07T21:18:12.665Z,49.54
2023-05-07T21:20:39.143Z,49.53
2023-05-07T21:23:05.780Z,49.64
2023-05-07T21:25:32.243Z,49.36
2023-05-07T21:27:58.619Z,49.58
2023-05-07T21:30:25.388Z,49.56
2023-05-07T21:32:52.928Z,49.59
2023-05-07T21:35:19.664Z,49.70
2023-05-07T21:37:46.124Z,49.57
2023-05-07T21:40:13.162Z,49.94
2023-05-07T21:42:39.909Z,49.85
2023-05-07T21:45:06.766Z,49.62
2023-05-07T21:47:33.378Z,49.71
2023-05-07T21:50:00.981Z,49.90
2023-05-07T21:52:27.399Z,49.68
2023-05-07T21:54:53.952Z,49.54
2023-05-07T21:57:21.108Z,49.78
2023-05-07T21:59:47.598Z,49.67
2023-05-07T22:02:13.988Z,49.97
2023-05-07T22:04:40.473Z,50.06
2023-05-07T22:07:06.864Z,50.35
2023-05-07T22:09:33.245Z,50.16
2023-05-07T22:11:59.659Z,50.35
2023-05-07T22:14:26.102Z,50.55
2023-05-07T22:16:52.608Z,50.65
2023-05-07T22:19:19.093Z,50.45
2023-05-07T22:21:45.608Z,50.57
2023-05-07T22:24:12.548Z,50.52
2023-05-07T22:26:38.901Z,50.22
2023-05-07T22:29:05.353Z,50.77
2023-05-07T22:31:31.781Z,50.93
2023-05-07T22:33:58.302Z,50.90
2023-05-07T22:36:24.724Z,51.05
2023-05-07T22:38:51.160Z,50.99
2023-05-07T22:41:17.717Z,51.05
2023-05-07T22:43:44.135Z,51.07
2023-05-07T22:46:10.810Z,51.13
2023-05-07T22:48:37.301Z,51.28
2023-05-07T22:51:04.047Z,51.35
2023-05-07T22:53:30.894Z,51.02
2023-05-07T22:55:57.641Z,50.96
2023-05-07T22:58:24.195Z,51.18
2023-05-07T23:00:50.635Z,51.37
2023-05-07T23:03:17.049Z,50.82
2023-05-07T23:05:44.235Z,51.33
2023-05-07T23:08:11.362Z,51.35
2023-05-07T23:10:37.772Z,51.34
2023-05-07T23:13:04.350Z,51.07
2023-05-07T23:15:31.892Z,51.09
2023-05-07T23:17:58.333Z,51.36
2023-05-07T23:20:24.966Z,51.18
2023-05-07T23:22:51.379Z,51.38
2023-05-07T23:25:18.129Z,51.43
2023-05-07T23:27:44.555Z,51.50
2023-05-07T23:30:11.715Z,51.42
2023-05-07T23:32:38.347Z,51.61
2023-05-07T23:35:05.212Z,51.66
2023-05-07T23:37:31.637Z,51.56
2023-05-07T23:39:57.967Z,51.75
2023-05-07T23:42:24.408Z,51.81
2023-05-07T23:44:50.750Z,51.88
2023-05-07T23:47:17.589Z,51.86
2023-05-07T23:49:43.992Z,51.74
2023-05-07T23:52:10.457Z,51.69
2023-05-07T23:54:37.176Z,51.78
2023-05-07T23:57:04.462Z,51.75
2023-05-07T23:59:30.856Z,51.82
